Time;durP1;ratioP1;P1;durP2;ratioP2;P2;SDS_P1;SDS_P2;PMS_P1;PMS_P2;Temp;Humidity;BMP_temperature;BMP_pressure;BME280_temperature;BME280_humidity;BME280_pressure;Samples;Min_cycle;Max_cycle;Signal;HPM_P1;HPM_P2
2023/12/19 00:01:50;;;;;;;74.35;35.13;;;;;;;;;;4997967;28;20067;-77
2023/12/19 00:04:16;;;;;;;65.35;34.47;;;;;;;;;;4998499;28;20042;-77
2023/12/19 00:06:42;;;;;;;69.85;36.03;;;;;;;;;;5000144;28;20026;-77
2023/12/19 00:09:08;;;;;;;63.00;34.80;;;;;;;;;;4993426;28;20034;-77
2023/12/19 00:11:34;;;;;;;69.43;35.85;;;;;;;;;;4993470;28;20434;-77
2023/12/19 00:14:00;;;;;;;65.60;36.38;;;;;;;;;;4997412;28;20029;-76
2023/12/19 00:16:26;;;;;;;75.60;36.17;;;;;;;;;;5008351;28;20369;-77
2023/12/19 00:18:53;;;;;;;76.80;38.30;;;;;;;;;;4995551;28;20026;-76
2023/12/19 00:21:19;;;;;;;77.15;36.33;;;;;;;;;;4997666;28;20188;-76
2023/12/19 00:23:45;;;;;;;71.85;35.15;;;;;;;;;;4995322;28;20030;-76
2023/12/19 00:26:12;;;;;;;72.57;37.22;;;;;;;;;;5008494;28;20038;-76
2023/12/19 00:28:39;;;;;;;69.40;36.72;;;;;;;;;;5011751;28;20045;-76
2023/12/19 00:31:05;;;;;;;70.28;36.35;;;;;;;;;;5007794;28;20034;-76
2023/12/19 00:33:33;;;;;;;76.68;36.08;;;;;;;;;;4999698;28;20476;-75
2023/12/19 00:35:59;;;;;;;70.15;35.47;;;;;;;;;;4993945;28;20038;-77
2023/12/19 00:38:25;;;;;;;72.88;34.45;;;;;;;;;;5000813;28;20021;-76
2023/12/19 00:40:51;;;;;;;72.78;37.13;;;;;;;;;;5027625;28;20043;-77
2023/12/19 00:43:17;;;;;;;65.38;34.63;;;;;;;;;;4994605;28;20027;-77
2023/12/19 00:45:43;;;;;;;66.40;33.40;;;;;;;;;;5014924;28;20026;-77
2023/12/19 00:48:10;;;;;;;61.45;32.05;;;;;;;;;;4999747;28;20034;-76
2023/12/19 00:50:36;;;;;;;58.35;30.83;;;;;;;;;;5002208;28;20113;-76
2023/12/19 00:53:02;;;;;;;57.25;31.75;;;;;;;;;;5033471;28;20063;-77
2023/12/19 00:55:28;;;;;;;90.38;49.42;;;;;;;;;;5009180;28;20038;-79
2023/12/19 00:57:54;;;;;;;72.13;39.53;;;;;;;;;;4993167;28;20496;-79
2023/12/19 01:00:20;;;;;;;50.15;27.98;;;;;;;;;;4992153;28;20101;-78
2023/12/19 01:02:46;;;;;;;52.72;28.67;;;;;;;;;;4993948;28;20492;-76
2023/12/19 01:05:12;;;;;;;54.00;29.92;;;;;;;;;;5003716;28;20062;-77
2023/12/19 01:07:38;;;;;;;54.67;29.05;;;;;;;;;;5005232;28;20884;-77
2023/12/19 01:10:04;;;;;;;54.70;30.17;;;;;;;;;;5011987;28;20029;-77
2023/12/19 01:12:30;;;;;;;56.20;29.35;;;;;;;;;;4997598;28;20022;-77
2023/12/19 01:14:56;;;;;;;51.28;27.63;;;;;;;;;;4991135;28;20033;-76
2023/12/19 01:17:22;;;;;;;50.78;28.73;;;;;;;;;;5003906;28;20037;-77
2023/12/19 01:19:49;;;;;;;46.95;27.27;;;;;;;;;;5006670;28;20177;-77
2023/12/19 01:22:15;;;;;;;48.10;26.40;;;;;;;;;;5003624;28;20033;-76
2023/12/19 01:24:41;;;;;;;41.85;25.23;;;;;;;;;;4995846;28;20040;-77
2023/12/19 01:27:07;;;;;;;38.05;23.20;;;;;;;;;;4992011;28;20093;-76
2023/12/19 01:29:33;;;;;;;38.28;22.92;;;;;;;;;;4992676;28;20042;-76
2023/12/19 01:31:59;;;;;;;37.75;22.60;;;;;;;;;;5004242;28;20018;-76
2023/12/19 01:34:25;;;;;;;39.75;22.73;;;;;;;;;;5003965;28;20022;-76
2023/12/19 01:36:51;;;;;;;38.88;23.13;;;;;;;;;;5000354;28;20052;-76
2023/12/19 01:39:17;;;;;;;37.28;21.70;;;;;;;;;;5004771;28;20089;-76
2023/12/19 01:41:43;;;;;;;38.92;22.20;;;;;;;;;;4998457;28;20036;-76
2023/12/19 01:44:17;;;;;;;37.63;22.58;;;;;;;;;;4999789;28;20037;-76
2023/12/19 01:46:43;;;;;;;42.08;23.75;;;;;;;;;;5005324;28;20037;-75
2023/12/19 01:49:09;;;;;;;34.00;21.63;;;;;;;;;;5002213;28;20042;-74
2023/12/19 01:51:35;;;;;;;40.80;23.42;;;;;;;;;;5035459;28;20026;-75
2023/12/19 01:54:04;;;;;;;35.00;21.65;;;;;;;;;;5006242;28;20034;-75
2023/12/19 01:56:30;;;;;;;41.40;22.38;;;;;;;;;;4999572;28;20109;-75
2023/12/19 01:58:56;;;;;;;38.13;22.85;;;;;;;;;;5003245;28;20045;-74
2023/12/19 02:03:58;;;;;;;33.80;21.48;;;;;;;;;;5939936;22;20032;-74
2023/12/19 02:06:25;;;;;;;43.47;21.60;;;;;;;;;;4970395;28;20043;-77
2023/12/19 02:08:51;;;;;;;83.68;49.55;;;;;;;;;;4990560;28;20041;-75
2023/12/19 02:11:18;;;;;;;37.95;22.83;;;;;;;;;;4990960;28;20027;-79
2023/12/19 02:13:45;;;;;;;41.28;22.77;;;;;;;;;;4977579;28;20110;-78
2023/12/19 02:16:11;;;;;;;34.72;21.85;;;;;;;;;;4987366;28;20038;-77
2023/12/19 02:18:37;;;;;;;40.90;22.15;;;;;;;;;;4989637;28;20030;-75
2023/12/19 02:21:04;;;;;;;35.63;21.35;;;;;;;;;;4990874;28;20463;-76
2023/12/19 02:23:30;;;;;;;33.78;20.52;;;;;;;;;;4990929;28;20089;-76
2023/12/19 02:25:56;;;;;;;37.25;20.67;;;;;;;;;;4995118;28;20048;-75
2023/12/19 02:28:22;;;;;;;40.65;22.85;;;;;;;;;;5010517;28;20076;-75
2023/12/19 02:30:48;;;;;;;37.00;21.67;;;;;;;;;;4994163;28;20033;-74
2023/12/19 02:33:14;;;;;;;38.25;21.73;;;;;;;;;;4990885;28;20030;-75
2023/12/19 02:35:40;;;;;;;35.55;21.65;;;;;;;;;;4990521;28;20045;-75
2023/12/19 02:38:06;;;;;;;37.58;21.65;;;;;;;;;;4973295;28;20761;-75
2023/12/19 02:40:33;;;;;;;37.45;21.25;;;;;;;;;;4970237;28;20034;-75
2023/12/19 02:43:01;;;;;;;33.92;21.45;;;;;;;;;;4984318;28;20064;-75
2023/12/19 02:45:31;;;;;;;33.70;20.80;;;;;;;;;;4989057;28;20073;-75
2023/12/19 02:47:58;;;;;;;31.67;19.85;;;;;;;;;;4989554;28;20117;-75
2023/12/19 02:50:24;;;;;;;30.42;19.90;;;;;;;;;;4989232;28;20036;-75
2023/12/19 02:52:50;;;;;;;33.83;20.35;;;;;;;;;;4989131;28;20030;-76
2023/12/19 02:55:16;;;;;;;31.33;19.88;;;;;;;;;;5005643;28;20040;-75
2023/12/19 02:57:42;;;;;;;34.83;20.33;;;;;;;;;;5009730;28;20025;-75
2023/12/19 03:00:08;;;;;;;33.42;20.63;;;;;;;;;;4992518;28;20376;-75
2023/12/19 03:02:34;;;;;;;35.00;20.27;;;;;;;;;;4990204;28;20518;-75
2023/12/19 03:05:00;;;;;;;32.22;19.45;;;;;;;;;;4989685;28;20495;-74
2023/12/19 03:07:26;;;;;;;31.35;19.23;;;;;;;;;;4990308;28;20057;-75
2023/12/19 03:09:52;;;;;;;30.83;19.15;;;;;;;;;;4993739;28;20037;-75
2023/12/19 03:12:18;;;;;;;30.63;19.50;;;;;;;;;;4989789;28;20030;-75
2023/12/19 03:14:44;;;;;;;31.50;20.40;;;;;;;;;;4984891;28;20034;-75
2023/12/19 03:17:12;;;;;;;28.85;19.85;;;;;;;;;;4990246;28;20092;-75
2023/12/19 03:19:38;;;;;;;30.38;19.77;;;;;;;;;;4989825;28;20019;-75
2023/12/19 03:22:05;;;;;;;30.50;19.85;;;;;;;;;;4988904;28;20038;-75
2023/12/19 03:24:31;;;;;;;30.67;20.60;;;;;;;;;;4990180;28;20023;-76
2023/12/19 03:26:57;;;;;;;33.38;22.02;;;;;;;;;;4989934;28;20041;-76
2023/12/19 03:29:23;;;;;;;33.25;20.35;;;;;;;;;;4990146;28;20034;-77
2023/12/19 03:31:49;;;;;;;29.35;18.92;;;;;;;;;;4994733;28;20042;-77
2023/12/19 03:34:15;;;;;;;31.67;21.67;;;;;;;;;;4996148;28;20026;-76
2023/12/19 03:36:41;;;;;;;32.78;20.55;;;;;;;;;;4989851;28;20026;-76
2023/12/19 03:39:08;;;;;;;32.22;19.67;;;;;;;;;;4993630;28;20073;-76
2023/12/19 03:41:34;;;;;;;30.73;20.08;;;;;;;;;;4992540;28;20034;-76
2023/12/19 03:44:00;;;;;;;31.13;19.30;;;;;;;;;;4993287;28;20066;-76
2023/12/19 03:46:26;;;;;;;34.38;19.60;;;;;;;;;;4993742;28;20062;-76
2023/12/19 03:48:52;;;;;;;33.95;20.13;;;;;;;;;;4993936;28;20034;-76
2023/12/19 03:51:18;;;;;;;27.67;18.45;;;;;;;;;;4992396;28;20030;-76
2023/12/19 03:53:44;;;;;;;29.48;17.48;;;;;;;;;;4994714;28;20041;-77
2023/12/19 03:56:10;;;;;;;24.45;16.80;;;;;;;;;;4997954;28;20032;-77
2023/12/19 03:58:39;;;;;;;26.27;16.83;;;;;;;;;;4993848;28;20097;-76
2023/12/19 04:01:05;;;;;;;26.10;16.60;;;;;;;;;;4993539;28;20029;-75
2023/12/19 04:03:31;;;;;;;22.35;15.73;;;;;;;;;;4993660;28;20027;-75
2023/12/19 04:05:57;;;;;;;27.20;16.83;;;;;;;;;;4992406;28;20124;-76
2023/12/19 04:08:23;;;;;;;26.88;17.00;;;;;;;;;;4990553;28;20025;-76
2023/12/19 04:10:49;;;;;;;21.90;14.48;;;;;;;;;;4991206;28;20026;-76
2023/12/19 04:13:15;;;;;;;26.08;16.00;;;;;;;;;;4988649;28;20034;-76
2023/12/19 04:15:41;;;;;;;21.42;14.52;;;;;;;;;;4978272;28;20046;-76
2023/12/19 04:18:09;;;;;;;26.50;16.50;;;;;;;;;;4993203;28;20023;-76
2023/12/19 04:20:35;;;;;;;24.52;15.88;;;;;;;;;;4993054;28;20244;-75
2023/12/19 04:23:02;;;;;;;27.13;16.80;;;;;;;;;;4993635;28;20058;-76
2023/12/19 04:25:28;;;;;;;21.55;15.20;;;;;;;;;;4993132;28;20041;-76
2023/12/19 04:27:54;;;;;;;22.00;15.00;;;;;;;;;;4992347;28;20072;-76
2023/12/19 04:30:20;;;;;;;18.98;14.15;;;;;;;;;;4992554;28;20542;-76
2023/12/19 04:32:46;;;;;;;21.17;14.15;;;;;;;;;;4992805;28;20029;-75
2023/12/19 04:35:12;;;;;;;19.00;12.43;;;;;;;;;;4992936;28;20037;-76
2023/12/19 04:37:38;;;;;;;18.52;11.85;;;;;;;;;;4991718;28;20534;-76
2023/12/19 04:40:05;;;;;;;18.40;12.30;;;;;;;;;;4993015;28;20410;-76
2023/12/19 04:42:32;;;;;;;17.75;12.07;;;;;;;;;;4991976;28;20034;-76
2023/12/19 04:44:58;;;;;;;16.88;12.20;;;;;;;;;;4992348;28;20023;-77
2023/12/19 04:47:24;;;;;;;18.20;12.25;;;;;;;;;;4992536;28;20034;-76
2023/12/19 04:49:50;;;;;;;17.42;11.13;;;;;;;;;;4990985;28;20034;-75
2023/12/19 04:52:16;;;;;;;18.55;12.20;;;;;;;;;;4992709;28;20037;-76
2023/12/19 04:54:42;;;;;;;18.02;12.52;;;;;;;;;;5003364;28;20029;-75
2023/12/19 04:57:08;;;;;;;18.42;12.95;;;;;;;;;;5012025;28;20392;-78
2023/12/19 04:59:34;;;;;;;19.30;12.30;;;;;;;;;;5007424;28;20513;-78
2023/12/19 05:02:00;;;;;;;19.08;11.80;;;;;;;;;;4991861;28;20022;-76
2023/12/19 05:04:26;;;;;;;17.52;11.88;;;;;;;;;;4991857;28;20581;-75
2023/12/19 05:06:53;;;;;;;16.60;12.30;;;;;;;;;;4992474;28;20086;-75
2023/12/19 05:09:20;;;;;;;17.58;12.52;;;;;;;;;;4983589;28;20035;-77
2023/12/19 05:11:46;;;;;;;18.60;13.00;;;;;;;;;;4971305;28;20415;-77
2023/12/19 05:14:12;;;;;;;17.95;12.82;;;;;;;;;;4983723;28;20069;-77
2023/12/19 05:16:38;;;;;;;18.45;13.38;;;;;;;;;;4992065;28;20395;-78
2023/12/19 05:19:04;;;;;;;21.27;13.10;;;;;;;;;;4992215;28;20379;-77
2023/12/19 05:21:36;;;;;;;19.98;14.77;;;;;;;;;;4990887;28;20530;-77
2023/12/19 05:24:02;;;;;;;18.25;13.15;;;;;;;;;;4992523;28;20026;-77
2023/12/19 05:26:28;;;;;;;18.17;13.50;;;;;;;;;;4990577;28;20038;-77
2023/12/19 05:28:54;;;;;;;18.73;12.93;;;;;;;;;;4992205;28;20117;-77
2023/12/19 05:31:21;;;;;;;22.10;13.45;;;;;;;;;;4991906;28;20026;-77
2023/12/19 05:33:47;;;;;;;17.45;12.43;;;;;;;;;;4991136;28;20534;-77
2023/12/19 05:36:13;;;;;;;15.07;11.07;;;;;;;;;;4989801;28;20042;-77
2023/12/19 05:38:39;;;;;;;17.60;11.95;;;;;;;;;;4990119;28;20061;-76
2023/12/19 05:41:05;;;;;;;17.77;11.65;;;;;;;;;;4991846;28;20030;-77
2023/12/19 05:43:32;;;;;;;18.58;11.23;;;;;;;;;;4991017;28;20026;-77
2023/12/19 05:45:59;;;;;;;18.10;12.30;;;;;;;;;;4991659;28;20041;-77
2023/12/19 05:48:25;;;;;;;15.70;11.65;;;;;;;;;;4990241;28;20030;-79
2023/12/19 05:50:52;;;;;;;14.45;10.68;;;;;;;;;;4991334;28;20236;-77
2023/12/19 05:53:18;;;;;;;13.50;10.13;;;;;;;;;;4989922;28;20411;-77
2023/12/19 05:55:47;;;;;;;14.68;11.23;;;;;;;;;;4990430;28;20026;-78
2023/12/19 05:58:13;;;;;;;14.48;10.70;;;;;;;;;;4991306;28;20038;-77
2023/12/19 06:00:40;;;;;;;16.30;12.10;;;;;;;;;;4991063;28;20106;-78
2023/12/19 06:03:06;;;;;;;15.80;11.65;;;;;;;;;;4991657;28;20033;-77
2023/12/19 06:05:33;;;;;;;15.23;11.25;;;;;;;;;;4990384;28;20042;-78
2023/12/19 06:08:00;;;;;;;13.32;10.40;;;;;;;;;;4991218;28;20030;-79
2023/12/19 06:10:27;;;;;;;16.60;11.95;;;;;;;;;;4990644;28;20026;-79
2023/12/19 06:12:53;;;;;;;13.65;10.88;;;;;;;;;;4991395;28;20026;-79
2023/12/19 06:15:19;;;;;;;16.42;11.70;;;;;;;;;;4987421;28;20369;-78
2023/12/19 06:17:46;;;;;;;17.15;11.52;;;;;;;;;;4990524;28;20455;-79
2023/12/19 06:20:12;;;;;;;14.35;10.32;;;;;;;;;;4991261;28;20113;-78
2023/12/19 06:22:39;;;;;;;14.07;10.35;;;;;;;;;;4990820;28;20124;-78
2023/12/19 06:25:06;;;;;;;15.95;11.60;;;;;;;;;;4991135;28;20037;-78
2023/12/19 06:27:33;;;;;;;17.33;11.68;;;;;;;;;;4990088;28;20085;-78
2023/12/19 06:29:59;;;;;;;16.80;10.95;;;;;;;;;;4989682;28;20434;-78
2023/12/19 06:32:25;;;;;;;14.60;10.52;;;;;;;;;;4989526;28;20092;-78
2023/12/19 06:34:51;;;;;;;17.67;11.25;;;;;;;;;;4991097;28;20038;-79
2023/12/19 06:37:18;;;;;;;18.13;11.48;;;;;;;;;;4990217;28;20029;-78
2023/12/19 06:39:44;;;;;;;14.75;10.82;;;;;;;;;;5002479;28;20025;-78
2023/12/19 06:42:10;;;;;;;18.42;10.70;;;;;;;;;;5010490;28;20026;-77
2023/12/19 06:44:36;;;;;;;12.57;10.10;;;;;;;;;;5007331;28;20034;-79
2023/12/19 06:47:02;;;;;;;15.30;10.57;;;;;;;;;;4990685;28;20030;-77
2023/12/19 06:49:29;;;;;;;14.77;10.05;;;;;;;;;;4990192;28;20030;-77
2023/12/19 06:51:55;;;;;;;13.57;9.57;;;;;;;;;;5002765;28;20091;-78
2023/12/19 06:54:21;;;;;;;14.45;9.68;;;;;;;;;;5001209;28;20030;-77
2023/12/19 06:56:47;;;;;;;14.48;9.57;;;;;;;;;;4990402;28;20034;-77
2023/12/19 06:59:14;;;;;;;12.05;8.90;;;;;;;;;;4990867;28;20039;-77
2023/12/19 07:01:40;;;;;;;10.90;7.95;;;;;;;;;;4992405;28;20076;-78
2023/12/19 07:04:06;;;;;;;10.20;7.55;;;;;;;;;;4988941;28;20046;-79
2023/12/19 07:06:32;;;;;;;12.05;8.55;;;;;;;;;;4988352;28;20121;-78
2023/12/19 07:08:58;;;;;;;12.65;8.05;;;;;;;;;;4989565;28;20532;-78
2023/12/19 07:11:26;;;;;;;10.55;7.15;;;;;;;;;;4989423;28;20573;-78
2023/12/19 07:13:52;;;;;;;11.98;8.00;;;;;;;;;;4979506;28;20034;-77
2023/12/19 07:16:19;;;;;;;13.57;9.05;;;;;;;;;;4974109;28;20109;-78
2023/12/19 07:18:45;;;;;;;12.52;8.40;;;;;;;;;;4979447;28;20034;-78
2023/12/19 07:21:18;;;;;;;14.80;9.25;;;;;;;;;;4990420;28;20030;-78
2023/12/19 07:23:44;;;;;;;15.98;9.75;;;;;;;;;;4989152;28;20114;-78
2023/12/19 07:26:19;;;;;;;13.75;9.13;;;;;;;;;;4984071;28;20480;-78
2023/12/19 07:28:45;;;;;;;13.05;9.13;;;;;;;;;;4987745;28;20018;-80
2023/12/19 07:31:19;;;;;;;16.10;9.77;;;;;;;;;;4981734;28;20045;-78
2023/12/19 07:33:45;;;;;;;15.82;10.63;;;;;;;;;;4987814;28;20026;-77
2023/12/19 07:36:12;;;;;;;149.18;90.35;;;;;;;;;;4981695;28;20125;-77
2023/12/19 07:38:38;;;;;;;15.70;10.85;;;;;;;;;;4976219;28;20456;-77
2023/12/19 07:41:04;;;;;;;16.95;11.15;;;;;;;;;;4981198;28;20026;-77
2023/12/19 07:43:32;;;;;;;15.80;9.82;;;;;;;;;;4984005;28;20030;-78
2023/12/19 07:45:58;;;;;;;16.50;11.40;;;;;;;;;;4981454;28;20086;-78
2023/12/19 07:48:24;;;;;;;13.60;9.80;;;;;;;;;;4973707;28;20034;-78
2023/12/19 07:50:51;;;;;;;15.27;9.45;;;;;;;;;;4982722;28;20057;-80
2023/12/19 07:53:17;;;;;;;13.90;10.60;;;;;;;;;;4988453;28;20065;-79
2023/12/19 07:55:43;;;;;;;17.02;10.55;;;;;;;;;;4993578;28;20037;-80
2023/12/19 07:58:09;;;;;;;15.90;11.25;;;;;;;;;;4984447;28;20031;-79
2023/12/19 08:00:35;;;;;;;16.20;11.20;;;;;;;;;;4989558;28;20030;-82
2023/12/19 08:03:01;;;;;;;17.17;10.98;;;;;;;;;;4988413;28;20033;-78
2023/12/19 08:05:27;;;;;;;16.40;11.57;;;;;;;;;;4988553;28;20046;-79
2023/12/19 08:07:53;;;;;;;14.82;10.85;;;;;;;;;;4988886;28;20451;-79
2023/12/19 08:10:19;;;;;;;15.20;11.38;;;;;;;;;;4990975;28;20431;-84
2023/12/19 08:12:45;;;;;;;15.90;11.70;;;;;;;;;;4990008;28;20032;-77
2023/12/19 08:15:12;;;;;;;14.68;11.15;;;;;;;;;;4989419;28;20030;-79
2023/12/19 08:17:38;;;;;;;18.60;12.30;;;;;;;;;;4981843;28;20034;-76
2023/12/19 08:20:06;;;;;;;17.25;11.95;;;;;;;;;;4989587;28;20037;-77
2023/12/19 08:22:32;;;;;;;17.45;12.25;;;;;;;;;;4988593;28;20452;-78
2023/12/19 08:24:58;;;;;;;15.73;11.80;;;;;;;;;;4990543;28;20030;-76
2023/12/19 08:27:28;;;;;;;17.90;11.73;;;;;;;;;;4993190;28;20037;-76
2023/12/19 08:29:54;;;;;;;16.00;11.15;;;;;;;;;;4990995;28;20014;-75
2023/12/19 08:32:20;;;;;;;15.88;10.75;;;;;;;;;;4984027;28;20027;-77
2023/12/19 08:34:46;;;;;;;14.55;10.63;;;;;;;;;;4979415;28;20030;-75
2023/12/19 08:37:12;;;;;;;17.40;10.98;;;;;;;;;;4974884;28;20034;-75
2023/12/19 08:39:38;;;;;;;18.15;11.30;;;;;;;;;;4972811;28;20561;-75
2023/12/19 08:42:04;;;;;;;14.60;9.43;;;;;;;;;;4979330;28;20055;-75
2023/12/19 08:44:30;;;;;;;13.07;9.05;;;;;;;;;;4973763;28;20479;-75
2023/12/19 08:46:57;;;;;;;10.93;8.02;;;;;;;;;;4980050;28;20031;-76
2023/12/19 08:49:23;;;;;;;9.55;7.38;;;;;;;;;;4976091;28;20078;-76
2023/12/19 08:51:49;;;;;;;10.02;7.05;;;;;;;;;;4982824;28;20050;-80
2023/12/19 08:54:15;;;;;;;8.68;6.43;;;;;;;;;;4978834;28;20095;-76
2023/12/19 08:56:42;;;;;;;8.30;6.15;;;;;;;;;;4983341;28;20035;-75
2023/12/19 08:59:08;;;;;;;9.43;6.80;;;;;;;;;;4981833;28;20022;-76
2023/12/19 09:01:34;;;;;;;9.63;6.75;;;;;;;;;;4983222;28;20049;-76
2023/12/19 09:04:00;;;;;;;9.45;7.55;;;;;;;;;;4991217;28;20030;-76
2023/12/19 09:06:27;;;;;;;9.77;6.78;;;;;;;;;;4992427;28;20038;-77
2023/12/19 09:08:53;;;;;;;9.48;6.97;;;;;;;;;;4992648;28;20018;-76
2023/12/19 09:11:19;;;;;;;12.52;7.28;;;;;;;;;;4981850;28;20494;-76
2023/12/19 09:13:45;;;;;;;12.65;8.65;;;;;;;;;;4992490;28;20038;-76
2023/12/19 09:16:11;;;;;;;10.15;7.55;;;;;;;;;;4986453;28;20038;-76
2023/12/19 09:18:37;;;;;;;13.07;8.57;;;;;;;;;;4979653;28;20038;-76
2023/12/19 09:21:04;;;;;;;12.10;8.68;;;;;;;;;;4980006;28;20706;-76
2023/12/19 09:23:30;;;;;;;17.38;10.50;;;;;;;;;;4982055;28;20034;-76
2023/12/19 09:25:56;;;;;;;18.75;12.35;;;;;;;;;;4981296;28;20133;-77
2023/12/19 09:28:23;;;;;;;14.85;11.25;;;;;;;;;;4981503;28;20038;-74
2023/12/19 09:30:50;;;;;;;15.75;11.27;;;;;;;;;;4982011;28;20018;-74
2023/12/19 09:33:17;;;;;;;17.92;12.93;;;;;;;;;;4980220;28;20034;-79
2023/12/19 09:35:43;;;;;;;15.93;11.27;;;;;;;;;;4986399;28;20045;-75
2023/12/19 09:38:09;;;;;;;20.13;12.73;;;;;;;;;;4991202;28;20026;-75
2023/12/19 09:40:35;;;;;;;31.85;23.73;;;;;;;;;;4991233;28;20027;-75
2023/12/19 09:43:02;;;;;;;19.95;13.75;;;;;;;;;;4986005;28;20455;-76
2023/12/19 09:45:28;;;;;;;19.27;13.35;;;;;;;;;;4983944;28;20041;-74
2023/12/19 09:48:03;;;;;;;18.90;13.52;;;;;;;;;;4991577;28;20098;-74
2023/12/19 09:50:31;;;;;;;18.67;13.27;;;;;;;;;;4992553;28;20113;-74
2023/12/19 09:52:57;;;;;;;22.52;14.32;;;;;;;;;;4997382;28;20038;-74
2023/12/19 09:55:25;;;;;;;22.17;13.90;;;;;;;;;;4989032;28;20495;-74
2023/12/19 09:57:52;;;;;;;21.67;14.55;;;;;;;;;;4991843;28;20029;-74
2023/12/19 10:00:19;;;;;;;22.45;14.98;;;;;;;;;;4991477;28;20499;-74
2023/12/19 10:02:45;;;;;;;21.77;14.43;;;;;;;;;;4989079;28;20026;-74
2023/12/19 10:05:11;;;;;;;22.60;14.90;;;;;;;;;;4987694;28;20122;-74
2023/12/19 10:07:38;;;;;;;24.92;16.88;;;;;;;;;;4990299;28;20040;-73
2023/12/19 10:10:07;;;;;;;22.92;17.17;;;;;;;;;;4985657;28;20121;-73
2023/12/19 10:12:33;;;;;;;27.02;18.48;;;;;;;;;;4986564;28;20041;-74
2023/12/19 10:15:25;;;;;;;30.27;19.73;;;;;;;;;;4981472;28;20035;-74
2023/12/19 10:18:04;;;;;;;27.15;17.67;;;;;;;;;;4972891;28;20050;-73
2023/12/19 10:20:31;;;;;;;23.65;15.57;;;;;;;;;;4981182;28;20031;-73
2023/12/19 10:23:04;;;;;;;22.85;14.35;;;;;;;;;;4976609;28;20522;-74
2023/12/19 10:25:30;;;;;;;16.35;11.70;;;;;;;;;;4980580;28;20510;-75
2023/12/19 10:28:09;;;;;;;13.75;9.98;;;;;;;;;;4991176;28;20042;-75
2023/12/19 10:30:36;;;;;;;14.48;9.32;;;;;;;;;;4979497;28;20483;-72
2023/12/19 10:33:03;;;;;;;13.30;8.95;;;;;;;;;;4988912;28;20026;-74
2023/12/19 10:35:44;;;;;;;12.10;8.85;;;;;;;;;;4980216;28;20117;-75
2023/12/19 10:38:11;;;;;;;11.18;8.60;;;;;;;;;;4986686;28;20033;-75
2023/12/19 10:40:37;;;;;;;11.55;8.50;;;;;;;;;;4984023;28;20111;-72
2023/12/19 10:43:03;;;;;;;10.82;7.90;;;;;;;;;;4987746;28;20051;-75
2023/12/19 10:45:29;;;;;;;10.60;7.75;;;;;;;;;;4978513;28;20204;-77
2023/12/19 10:47:56;;;;;;;9.93;7.30;;;;;;;;;;4970800;28;20066;-76
2023/12/19 10:50:23;;;;;;;8.43;7.25;;;;;;;;;;4974202;28;20031;-76
2023/12/19 10:52:53;;;;;;;10.68;7.68;;;;;;;;;;4988820;28;20456;-75
2023/12/19 10:55:21;;;;;;;10.55;7.35;;;;;;;;;;4981819;28;20069;-77
2023/12/19 10:57:49;;;;;;;11.40;8.35;;;;;;;;;;4971287;28;20030;-74
2023/12/19 11:00:21;;;;;;;11.13;8.35;;;;;;;;;;4979475;28;20038;-73
2023/12/19 11:02:50;;;;;;;12.52;8.82;;;;;;;;;;4988666;28;20050;-74
2023/12/19 11:05:25;;;;;;;11.52;8.10;;;;;;;;;;4988370;28;20061;-74
2023/12/19 11:07:54;;;;;;;12.68;9.02;;;;;;;;;;4984718;28;20109;-75
2023/12/19 11:10:22;;;;;;;13.23;9.30;;;;;;;;;;4983613;28;20495;-74
2023/12/19 11:12:50;;;;;;;12.38;9.05;;;;;;;;;;4983415;28;20030;-76
2023/12/19 11:15:16;;;;;;;11.98;8.88;;;;;;;;;;4976780;28;20042;-74
2023/12/19 11:17:59;;;;;;;12.63;9.18;;;;;;;;;;4980546;28;20192;-75
2023/12/19 11:20:25;;;;;;;11.85;8.48;;;;;;;;;;4974631;28;20075;-72
2023/12/19 11:23:01;;;;;;;10.80;8.63;;;;;;;;;;4970754;28;20026;-76
2023/12/19 11:25:39;;;;;;;14.90;9.50;;;;;;;;;;4988939;28;20037;-77
2023/12/19 11:28:06;;;;;;;13.55;8.82;;;;;;;;;;4990109;28;20536;-79
2023/12/19 11:30:33;;;;;;;10.57;8.15;;;;;;;;;;4990176;28;20034;-77
2023/12/19 11:32:59;;;;;;;15.75;8.35;;;;;;;;;;4984808;28;20030;-77
2023/12/19 11:35:29;;;;;;;16.60;10.63;;;;;;;;;;4984575;28;20030;-73
2023/12/19 11:38:14;;;;;;;14.60;8.95;;;;;;;;;;4986279;28;20022;-73
2023/12/19 11:40:43;;;;;;;11.35;8.98;;;;;;;;;;4989785;28;20046;-74
2023/12/19 11:43:09;;;;;;;15.35;10.00;;;;;;;;;;4990015;28;20022;-76
2023/12/19 11:45:36;;;;;;;12.10;9.02;;;;;;;;;;4989276;28;20049;-75
2023/12/19 11:48:02;;;;;;;11.55;8.90;;;;;;;;;;4989677;28;20371;-73
2023/12/19 11:50:40;;;;;;;11.52;8.95;;;;;;;;;;4990556;28;20033;-74
2023/12/19 11:53:07;;;;;;;13.75;9.20;;;;;;;;;;4996640;28;20498;-74
2023/12/19 11:55:33;;;;;;;14.30;9.40;;;;;;;;;;4988158;28;20053;-76
2023/12/19 11:58:11;;;;;;;12.75;8.77;;;;;;;;;;4989462;28;20085;-74
2023/12/19 12:00:37;;;;;;;11.18;8.48;;;;;;;;;;4993398;28;20026;-75
2023/12/19 12:03:07;;;;;;;13.80;8.75;;;;;;;;;;4974187;28;20037;-74
2023/12/19 12:05:33;;;;;;;12.77;8.05;;;;;;;;;;4974292;28;20524;-80
2023/12/19 12:07:59;;;;;;;13.43;8.50;;;;;;;;;;4980558;28;20034;-76
2023/12/19 12:10:27;;;;;;;16.65;8.02;;;;;;;;;;4992398;28;20030;-76
2023/12/19 12:12:54;;;;;;;12.93;8.07;;;;;;;;;;4993501;28;20547;-75
2023/12/19 12:15:24;;;;;;;15.60;9.80;;;;;;;;;;4993558;28;20085;-74
2023/12/19 12:17:51;;;;;;;12.88;8.90;;;;;;;;;;4993594;28;20495;-74
2023/12/19 12:20:25;;;;;;;12.50;7.93;;;;;;;;;;4990078;28;20034;-77
2023/12/19 12:22:57;;;;;;;14.23;10.15;;;;;;;;;;4976782;28;20484;-74
2023/12/19 12:25:23;;;;;;;12.82;7.57;;;;;;;;;;4988194;28;20117;-76
2023/12/19 12:27:55;;;;;;;12.65;7.65;;;;;;;;;;4988390;28;20042;-76
2023/12/19 12:30:21;;;;;;;14.32;8.25;;;;;;;;;;4990091;28;20031;-75
2023/12/19 12:32:47;;;;;;;12.27;7.53;;;;;;;;;;4991563;28;20050;-76
2023/12/19 12:35:24;;;;;;;9.55;6.55;;;;;;;;;;4991515;28;20045;-75
2023/12/19 12:38:00;;;;;;;11.05;7.40;;;;;;;;;;4991655;28;20384;-75
2023/12/19 12:40:26;;;;;;;9.88;6.85;;;;;;;;;;4993881;28;20038;-75
2023/12/19 12:42:53;;;;;;;10.90;6.72;;;;;;;;;;4999285;28;20033;-75
2023/12/19 12:45:19;;;;;;;8.98;6.65;;;;;;;;;;4992357;28;20050;-74
2023/12/19 12:47:45;;;;;;;10.73;6.65;;;;;;;;;;4992980;28;20069;-75
2023/12/19 12:50:11;;;;;;;10.73;7.25;;;;;;;;;;4991193;28;20026;-75
2023/12/19 12:52:40;;;;;;;10.25;6.78;;;;;;;;;;4997979;28;20026;-75
2023/12/19 12:55:10;;;;;;;10.98;6.43;;;;;;;;;;4992741;28;20491;-78
2023/12/19 12:57:36;;;;;;;10.73;7.35;;;;;;;;;;4974169;28;20469;-78
2023/12/19 13:00:03;;;;;;;17.63;11.30;;;;;;;;;;4987450;28;20035;-75
2023/12/19 13:02:29;;;;;;;10.43;7.78;;;;;;;;;;4985690;28;20195;-75
2023/12/19 13:04:55;;;;;;;13.60;10.27;;;;;;;;;;4992414;28;20058;-74
2023/12/19 13:07:21;;;;;;;18.98;9.85;;;;;;;;;;4989765;28;20050;-74
2023/12/19 13:09:47;;;;;;;16.23;8.93;;;;;;;;;;4989031;28;20109;-75
2023/12/19 13:12:13;;;;;;;7.88;4.68;;;;;;;;;;4992169;28;20057;-74
2023/12/19 13:14:40;;;;;;;6.97;5.30;;;;;;;;;;4989949;28;20062;-77
2023/12/19 13:17:06;;;;;;;6.22;3.75;;;;;;;;;;4989107;28;20038;-75
2023/12/19 13:19:32;;;;;;;5.32;2.83;;;;;;;;;;4991049;28;20061;-74
2023/12/19 13:21:58;;;;;;;5.78;3.40;;;;;;;;;;4992617;28;20114;-74
2023/12/19 13:24:24;;;;;;;4.78;3.30;;;;;;;;;;4989607;28;20479;-74
2023/12/19 13:26:51;;;;;;;4.35;2.85;;;;;;;;;;4989427;28;20496;-74
2023/12/19 13:29:17;;;;;;;5.00;2.17;;;;;;;;;;4983785;28;20046;-74
2023/12/19 13:31:43;;;;;;;3.92;2.38;;;;;;;;;;4992170;28;20077;-73
2023/12/19 13:34:09;;;;;;;3.40;2.40;;;;;;;;;;4991741;28;20116;-74
2023/12/19 13:36:38;;;;;;;4.00;2.70;;;;;;;;;;4989620;28;20039;-76
2023/12/19 13:39:04;;;;;;;3.28;1.83;;;;;;;;;;4991962;28;20467;-73
2023/12/19 13:41:30;;;;;;;3.72;1.95;;;;;;;;;;4991715;28;20036;-75
2023/12/19 13:43:56;;;;;;;2.63;1.27;;;;;;;;;;4991860;28;20101;-74
2023/12/19 13:46:23;;;;;;;6.43;1.40;;;;;;;;;;4991121;28;20034;-74
2023/12/19 13:48:51;;;;;;;2.65;1.65;;;;;;;;;;5002960;28;20037;-75
2023/12/19 13:51:17;;;;;;;3.30;2.63;;;;;;;;;;4993105;28;20614;-77
2023/12/19 13:53:45;;;;;;;6.25;2.28;;;;;;;;;;4991602;28;20065;-75
2023/12/19 13:56:11;;;;;;;3.30;1.95;;;;;;;;;;4990445;28;20034;-74
2023/12/19 13:58:37;;;;;;;4.75;1.63;;;;;;;;;;4990674;28;20027;-74
2023/12/19 14:01:03;;;;;;;2.83;1.27;;;;;;;;;;4991513;28;20498;-74
2023/12/19 14:03:29;;;;;;;1.88;1.10;;;;;;;;;;4991180;28;20365;-74
2023/12/19 14:05:55;;;;;;;1.95;1.13;;;;;;;;;;4991577;28;20488;-74
2023/12/19 14:08:21;;;;;;;2.45;0.77;;;;;;;;;;4988795;28;20023;-74
2023/12/19 14:10:48;;;;;;;3.47;0.90;;;;;;;;;;4991445;28;20475;-74
2023/12/19 14:13:15;;;;;;;2.55;0.77;;;;;;;;;;4991252;28;20523;-75
2023/12/19 14:15:42;;;;;;;1.75;0.88;;;;;;;;;;4991600;28;20483;-75
2023/12/19 14:18:08;;;;;;;4.28;0.90;;;;;;;;;;4988367;28;20476;-75
2023/12/19 14:20:34;;;;;;;3.10;1.10;;;;;;;;;;4988634;28;20030;-75
2023/12/19 14:23:01;;;;;;;1.77;1.23;;;;;;;;;;4989917;28;20022;-74
2023/12/19 14:25:27;;;;;;;3.45;1.52;;;;;;;;;;4989548;28;20046;-74